Time,TemperatureF,DewpointF,PressureIn,WindDirection,WindDirectionDegrees,WindSpeedMPH,WindSpeedGustMPH,Humidity,HourlyPrecipIn,Conditions,Clouds,dailyrainin,SoftwareType,DateUTC
2013-01-15 00:03:00,68.5,65.7,30.15,ENE,69,0.0,1.0,91,0.00,,,0.00,WUHU216DAVISVP2,2013-01-15 05:03:00,
2013-01-15 00:08:00,68.5,65.7,30.16,ENE,69,0.0,1.0,91,0.00,,,0.00,WUHU216DAVISVP2,2013-01-15 05:08:00,
2013-01-15 00:13:00,68.4,65.6,30.16,ENE,69,0.0,0.0,91,0.00,,,0.00,WUHU216DAVISVP2,2013-01-15 05:13:00,
2013-01-15 00:18:00,68.3,65.5,30.16,ENE,69,0.0,0.0,91,0.00,,,0.00,WUHU216DAVISVP2,2013-01-15 05:18:00,
2013-01-15 00:23:00,68.1,65.3,30.16,ENE,69,0.0,0.0,91,0.00,,,0.00,WUHU216DAVISVP2,2013-01-15 05:23:00,
2013-01-15 00:28:00,67.9,65.2,30.16,ENE,69,0.0,0.0,91,0.00,,,0.00,WUHU216DAVISVP2,2013-01-15 05:28:00,
2013-01-15 00:33:00,67.6,64.9,30.16,ENE,69,0.0,0.0,91,0.00,,,0.00,WUHU216DAVISVP2,2013-01-15 05:33:00,
2013-01-15 00:38:00,67.4,64.7,30.16,ENE,69,0.0,0.0,91,0.00,,,0.00,WUHU216DAVISVP2,2013-01-15 05:38:00,
2013-01-15 00:43:00,67.1,64.4,30.16,ENE,69,0.0,0.0,91,0.00,,,0.00,WUHU216DAVISVP2,2013-01-15 05:43:00,
2013-01-15 00:48:00,66.9,64.2,30.16,ENE,69,0.0,0.0,91,0.00,,,0.00,WUHU216DAVISVP2,2013-01-15 05:48:00,
2013-01-15 00:53:00,66.6,64.2,30.16,ENE,69,0.0,0.0,92,0.00,,,0.00,WUHU216DAVISVP2,2013-01-15 05:53:00,
2013-01-15 00:58:00,66.3,63.9,30.16,ENE,69,0.0,0.0,92,0.00,,,0.00,WUHU216DAVISVP2,2013-01-15 05:58:00,
2013-01-15 01:03:00,66.1,63.7,30.16,ENE,69,0.0,0.0,92,0.00,,,0.00,WUHU216DAVISVP2,2013-01-15 06:03:00,
2013-01-15 01:08:00,65.8,63.4,30.16,ENE,69,0.0,0.0,92,0.00,,,0.00,WUHU216DAVISVP2,2013-01-15 06:08:00,
2013-01-15 01:13:00,65.6,63.2,30.16,ENE,69,0.0,0.0,92,0.00,,,0.00,WUHU216DAVISVP2,2013-01-15 06:13:00,
2013-01-15 01:18:00,65.4,63.3,30.16,ENE,69,0.0,0.0,93,0.00,,,0.00,WUHU216DAVISVP2,2013-01-15 06:18:00,
2013-01-15 01:23:00,65.2,63.1,30.16,ENE,69,0.0,0.0,93,0.00,,,0.00,WUHU216DAVISVP2,2013-01-15 06:23:00,
2013-01-15 01:28:00,65.0,62.9,30.16,ENE,69,0.0,0.0,93,0.00,,,0.00,WUHU216DAVISVP2,2013-01-15 06:28:00,
2013-01-15 01:33:00,64.8,63.0,30.16,ENE,69,0.0,0.0,94,0.00,,,0.00,WUHU216DAVISVP2,2013-01-15 06:33:00,
2013-01-15 01:38:00,64.7,62.9,30.15,ENE,69,0.0,0.0,94,0.00,,,0.00,WUHU216DAVISVP2,2013-01-15 06:38:00,
2013-01-15 01:43:00,64.7,62.9,30.16,ENE,69,0.0,0.0,94,0.00,,,0.00,WUHU216DAVISVP2,2013-01-15 06:43:00,
2013-01-15 01:48:00,64.6,62.8,30.16,ENE,69,0.0,0.0,94,0.00,,,0.00,WUHU216DAVISVP2,2013-01-15 06:48:00,
2013-01-15 01:53:00,64.6,62.8,30.15,ENE,69,0.0,0.0,94,0.00,,,0.00,WUHU216DAVISVP2,2013-01-15 06:53:00,
2013-01-15 01:58:00,64.5,62.7,30.15,ENE,69,0.0,0.0,94,0.00,,,0.00,WUHU216DAVISVP2,2013-01-15 06:58:00,
2013-01-15 02:03:00,64.4,62.6,30.15,ENE,69,0.0,0.0,94,0.00,,,0.00,WUHU216DAVISVP2,2013-01-15 07:03:00,
2013-01-15 02:08:00,64.3,62.8,30.16,ENE,69,0.0,0.0,95,0.00,,,0.00,WUHU216DAVISVP2,2013-01-15 07:08:00,
2013-01-15 02:13:00,64.1,62.6,30.15,ENE,69,0.0,0.0,95,0.00,,,0.00,WUHU216DAVISVP2,2013-01-15 07:13:00,
2013-01-15 02:18:00,64.0,62.5,30.15,ENE,69,0.0,0.0,95,0.00,,,0.00,WUHU216DAVISVP2,2013-01-15 07:18:00,
2013-01-15 02:23:00,63.9,62.4,30.15,ENE,69,0.0,0.0,95,0.00,,,0.00,WUHU216DAVISVP2,2013-01-15 07:23:00,
2013-01-15 02:28:00,63.8,62.3,30.15,ENE,69,0.0,0.0,95,0.00,,,0.00,WUHU216DAVISVP2,2013-01-15 07:28:00,
2013-01-15 02:33:00,63.8,62.3,30.15,ENE,69,0.0,0.0,95,0.00,,,0.00,WUHU216DAVISVP2,2013-01-15 07:33:00,
2013-01-15 02:38:00,63.8,62.6,30.15,ENE,69,0.0,0.0,96,0.00,,,0.00,WUHU216DAVISVP2,2013-01-15 07:38:00,
2013-01-15 02:43:00,63.8,62.6,30.15,ENE,68,0.0,0.0,96,0.00,,,0.00,WUHU216DAVISVP2,2013-01-15 07:43:00,
2013-01-15 02:48:00,63.8,62.6,30.15,ENE,68,0.0,0.0,96,0.00,,,0.00,WUHU216DAVISVP2,2013-01-15 07:48:00,
2013-01-15 02:53:00,63.9,62.7,30.14,ENE,68,0.0,0.0,96,0.00,,,0.00,WUHU216DAVISVP2,2013-01-15 07:53:00,
2013-01-15 02:58:00,64.0,62.8,30.14,ENE,68,0.0,0.0,96,0.00,,,0.00,WUHU216DAVISVP2,2013-01-15 07:58:00,
2013-01-15 03:03:00,64.0,62.8,30.14,ENE,68,0.0,0.0,96,0.00,,,0.00,WUHU216DAVISVP2,2013-01-15 08:03:00,
2013-01-15 03:08:00,64.0,62.8,30.14,ENE,68,0.0,0.0,96,0.00,,,0.00,WUHU216DAVISVP2,2013-01-15 08:08:00,
2013-01-15 03:13:00,63.9,62.7,30.14,ENE,67,0.0,0.0,96,0.00,,,0.00,WUHU216DAVISVP2,2013-01-15 08:13:00,
2013-01-15 03:18:00,64.0,62.8,30.14,ENE,67,0.0,0.0,96,0.00,,,0.00,WUHU216DAVISVP2,2013-01-15 08:18:00,
2013-01-15 03:23:00,64.0,62.8,30.14,ENE,67,0.0,0.0,96,0.00,,,0.00,WUHU216DAVISVP2,2013-01-15 08:23:00,
2013-01-15 03:28:00,63.9,62.7,30.14,ENE,67,0.0,0.0,96,0.00,,,0.00,WUHU216DAVISVP2,2013-01-15 08:28:00,
2013-01-15 03:33:00,63.8,62.6,30.13,ENE,67,0.0,0.0,96,0.00,,,0.00,WUHU216DAVISVP2,2013-01-15 08:33:00,
2013-01-15 03:38:00,63.8,62.6,30.14,ENE,67,0.0,0.0,96,0.00,,,0.00,WUHU216DAVISVP2,2013-01-15 08:38:00,
2013-01-15 03:43:00,63.7,62.5,30.13,ENE,67,0.0,0.0,96,0.00,,,0.00,WUHU216DAVISVP2,2013-01-15 08:43:00,
2013-01-15 03:48:00,63.6,62.4,30.13,ENE,67,0.0,0.0,96,0.00,,,0.00,WUHU216DAVISVP2,2013-01-15 08:48:00,
2013-01-15 03:53:00,63.6,62.4,30.13,ENE,67,0.0,0.0,96,0.00,,,0.00,WUHU216DAVISVP2,2013-01-15 08:53:00,
2013-01-15 03:58:00,63.5,62.3,30.13,ENE,67,0.0,0.0,96,0.00,,,0.00,WUHU216DAVISVP2,2013-01-15 08:58:00,
2013-01-15 04:03:00,63.4,62.2,30.13,ENE,67,0.0,0.0,96,0.00,,,0.00,WUHU216DAVISVP2,2013-01-15 09:03:00,
2013-01-15 04:08:00,63.3,62.1,30.13,ENE,67,0.0,0.0,96,0.00,,,0.00,WUHU216DAVISVP2,2013-01-15 09:08:00,
2013-01-15 04:13:00,63.2,62.0,30.13,ENE,67,0.0,0.0,96,0.00,,,0.00,WUHU216DAVISVP2,2013-01-15 09:13:00,
2013-01-15 04:18:00,63.2,62.0,30.13,ENE,67,0.0,0.0,96,0.00,,,0.00,WUHU216DAVISVP2,2013-01-15 09:18:00,
2013-01-15 04:23:00,63.2,62.3,30.12,ENE,68,0.0,0.0,97,0.00,,,0.00,WUHU216DAVISVP2,2013-01-15 09:23:00,
2013-01-15 04:28:00,63.4,62.5,30.12,ENE,68,0.0,0.0,97,0.00,,,0.00,WUHU216DAVISVP2,2013-01-15 09:28:00,
2013-01-15 04:33:00,63.4,62.5,30.12,ENE,68,0.0,0.0,97,0.00,,,0.00,WUHU216DAVISVP2,2013-01-15 09:33:00,
2013-01-15 04:38:00,63.3,62.4,30.12,ENE,68,0.0,0.0,97,0.00,,,0.00,WUHU216DAVISVP2,2013-01-15 09:38:00,
2013-01-15 04:43:00,63.2,62.3,30.12,ENE,68,0.0,0.0,97,0.00,,,0.00,WUHU216DAVISVP2,2013-01-15 09:43:00,
2013-01-15 04:48:00,63.2,62.3,30.12,ENE,69,0.0,0.0,97,0.00,,,0.00,WUHU216DAVISVP2,2013-01-15 09:48:00,
2013-01-15 04:53:00,63.1,62.2,30.12,ENE,68,0.0,0.0,97,0.00,,,0.00,WUHU216DAVISVP2,2013-01-15 09:53:00,
2013-01-15 04:58:00,63.1,62.2,30.12,ENE,68,0.0,0.0,97,0.00,,,0.00,WUHU216DAVISVP2,2013-01-15 09:58:00,
2013-01-15 05:03:00,63.0,62.1,30.12,ENE,69,0.0,0.0,97,0.00,,,0.00,WUHU216DAVISVP2,2013-01-15 10:03:00,
2013-01-15 05:08:00,62.9,62.0,30.12,ENE,69,0.0,0.0,97,0.00,,,0.00,WUHU216DAVISVP2,2013-01-15 10:08:00,
2013-01-15 05:13:00,62.7,61.8,30.12,ENE,69,0.0,0.0,97,0.00,,,0.00,WUHU216DAVISVP2,2013-01-15 10:13:00,
2013-01-15 05:18:00,62.7,61.8,30.12,ENE,69,0.0,0.0,97,0.00,,,0.00,WUHU216DAVISVP2,2013-01-15 10:18:00,
2013-01-15 05:23:00,62.6,61.7,30.12,ENE,69,0.0,0.0,97,0.00,,,0.00,WUHU216DAVISVP2,2013-01-15 10:23:00,
2013-01-15 05:28:00,62.5,61.6,30.12,ENE,69,0.0,0.0,97,0.00,,,0.00,WUHU216DAVISVP2,2013-01-15 10:28:00,
2013-01-15 05:33:00,62.3,61.4,30.12,ENE,69,0.0,0.0,97,0.00,,,0.00,WUHU216DAVISVP2,2013-01-15 10:33:00,
2013-01-15 05:38:00,62.2,61.3,30.12,ENE,69,0.0,0.0,97,0.00,,,0.00,WUHU216DAVISVP2,2013-01-15 10:38:00,
2013-01-15 05:43:00,62.2,61.3,30.12,ENE,69,0.0,0.0,97,0.00,,,0.00,WUHU216DAVISVP2,2013-01-15 10:43:00,
2013-01-15 05:48:00,62.0,61.1,30.12,ENE,69,0.0,0.0,97,0.00,,,0.00,WUHU216DAVISVP2,2013-01-15 10:48:00,
2013-01-15 05:53:00,62.0,61.1,30.12,ENE,69,0.0,0.0,97,0.00,,,0.00,WUHU216DAVISVP2,2013-01-15 10:53:00,
2013-01-15 05:58:00,61.9,61.0,30.12,ENE,69,0.0,0.0,97,0.00,,,0.00,WUHU216DAVISVP2,2013-01-15 10:58:00,
2013-01-15 06:03:00,61.9,61.0,30.12,ENE,69,0.0,0.0,97,0.00,,,0.00,WUHU216DAVISVP2,2013-01-15 11:03:00,
2013-01-15 06:08:00,62.0,61.4,30.12,ENE,69,0.0,0.0,98,0.00,,,0.00,WUHU216DAVISVP2,2013-01-15 11:08:00,
2013-01-15 06:13:00,62.0,61.4,30.12,ENE,69,0.0,0.0,98,0.00,,,0.00,WUHU216DAVISVP2,2013-01-15 11:13:00,
2013-01-15 06:18:00,62.2,61.6,30.12,ENE,69,0.0,0.0,98,0.00,,,0.00,WUHU216DAVISVP2,2013-01-15 11:18:00,
2013-01-15 06:23:00,62.3,61.7,30.12,ENE,69,0.0,0.0,98,0.00,,,0.00,WUHU216DAVISVP2,2013-01-15 11:23:00,
2013-01-15 06:28:00,62.2,61.6,30.13,ENE,69,0.0,0.0,98,0.00,,,0.00,WUHU216DAVISVP2,2013-01-15 11:28:00,
2013-01-15 06:33:00,62.2,61.6,30.13,ENE,69,0.0,0.0,98,0.00,,,0.00,WUHU216DAVISVP2,2013-01-15 11:33:00,
2013-01-15 06:38:00,62.0,61.4,30.12,ENE,69,0.0,0.0,98,0.00,,,0.00,WUHU216DAVISVP2,2013-01-15 11:38:00,
2013-01-15 06:43:00,62.0,61.4,30.13,ENE,69,0.0,0.0,98,0.00,,,0.00,WUHU216DAVISVP2,2013-01-15 11:43:00,
2013-01-15 06:48:00,62.0,61.4,30.13,ENE,69,0.0,0.0,98,0.00,,,0.00,WUHU216DAVISVP2,2013-01-15 11:48:00,
2013-01-15 06:53:00,61.9,61.3,30.13,ENE,69,0.0,0.0,98,0.00,,,0.00,WUHU216DAVISVP2,2013-01-15 11:53:00,
2013-01-15 06:59:00,61.8,61.2,30.13,ENE,69,0.0,0.0,98,0.00,,,0.00,WUHU216DAVISVP2,2013-01-15 11:59:00,
2013-01-15 07:04:00,61.8,61.2,30.13,ENE,69,0.0,0.0,98,0.00,,,0.00,WUHU216DAVISVP2,2013-01-15 12:04:00,
2013-01-15 07:09:00,61.7,61.1,30.13,ENE,69,0.0,0.0,98,0.00,,,0.00,WUHU216DAVISVP2,2013-01-15 12:09:00,
2013-01-15 07:14:00,61.6,61.0,30.13,ENE,69,0.0,0.0,98,0.00,,,0.00,WUHU216DAVISVP2,2013-01-15 12:14:00,
2013-01-15 07:19:00,61.5,60.9,30.14,ENE,69,0.0,0.0,98,0.00,,,0.00,WUHU216DAVISVP2,2013-01-15 12:19:00,
2013-01-15 07:24:00,61.5,60.9,30.14,ENE,69,0.0,0.0,98,0.00,,,0.00,WUHU216DAVISVP2,2013-01-15 12:24:00,
2013-01-15 07:29:00,61.6,61.0,30.14,ENE,69,0.0,0.0,98,0.00,,,0.00,WUHU216DAVISVP2,2013-01-15 12:29:00,
2013-01-15 07:34:00,61.7,61.1,30.14,ENE,69,0.0,0.0,98,0.00,,,0.00,WUHU216DAVISVP2,2013-01-15 12:34:00,
2013-01-15 07:39:00,61.7,61.1,30.14,ENE,69,0.0,0.0,98,0.00,,,0.00,WUHU216DAVISVP2,2013-01-15 12:39:00,
2013-01-15 07:44:00,61.8,61.2,30.14,ENE,69,0.0,0.0,98,0.00,,,0.00,WUHU216DAVISVP2,2013-01-15 12:44:00,
2013-01-15 07:49:00,62.0,61.4,30.14,ENE,69,0.0,0.0,98,0.00,,,0.00,WUHU216DAVISVP2,2013-01-15 12:49:00,
2013-01-15 07:54:00,62.3,62.0,30.14,ENE,69,0.0,0.0,99,0.00,,,0.00,WUHU216DAVISVP2,2013-01-15 12:54:00,
2013-01-15 07:59:00,62.7,62.4,30.15,ENE,69,0.0,0.0,99,0.00,,,0.00,WUHU216DAVISVP2,2013-01-15 12:59:00,
2013-01-15 08:04:00,63.1,62.8,30.15,ENE,69,0.0,0.0,99,0.00,,,0.00,WUHU216DAVISVP2,2013-01-15 13:04:00,
2013-01-15 08:09:00,63.4,63.1,30.15,ENE,69,0.0,0.0,99,0.00,,,0.00,WUHU216DAVISVP2,2013-01-15 13:09:00,
2013-01-15 08:14:00,63.6,63.3,30.15,ENE,69,0.0,0.0,99,0.00,,,0.00,WUHU216DAVISVP2,2013-01-15 13:14:00,
2013-01-15 08:19:00,63.8,63.5,30.15,ENE,69,0.0,0.0,99,0.00,,,0.00,WUHU216DAVISVP2,2013-01-15 13:19:00,
2013-01-15 08:24:00,64.1,63.8,30.15,ENE,69,0.0,0.0,99,0.00,,,0.00,WUHU216DAVISVP2,2013-01-15 13:24:00,
2013-01-15 08:29:00,64.4,64.1,30.15,ENE,67,0.0,0.0,99,0.00,,,0.00,WUHU216DAVISVP2,2013-01-15 13:29:00,
2013-01-15 08:34:00,64.7,64.4,30.16,ENE,67,0.0,0.0,99,0.00,,,0.00,WUHU216DAVISVP2,2013-01-15 13:34:00,
2013-01-15 08:39:00,64.9,64.6,30.16,ENE,67,0.0,0.0,99,0.00,,,0.00,WUHU216DAVISVP2,2013-01-15 13:39:00,
2013-01-15 08:44:00,65.2,64.9,30.16,ENE,67,0.0,1.0,99,0.00,,,0.00,WUHU216DAVISVP2,2013-01-15 13:44:00,
2013-01-15 08:49:00,65.5,65.2,30.16,ENE,67,0.0,1.0,99,0.00,,,0.00,WUHU216DAVISVP2,2013-01-15 13:49:00,
2013-01-15 08:54:00,65.7,65.4,30.16,ENE,68,0.0,1.0,99,0.00,,,0.00,WUHU216DAVISVP2,2013-01-15 13:54:00,
2013-01-15 08:59:00,65.9,65.6,30.16,ENE,68,0.0,1.0,99,0.00,,,0.00,WUHU216DAVISVP2,2013-01-15 13:59:00,
2013-01-15 09:04:00,66.2,65.9,30.16,SE,146,0.0,1.0,99,0.00,,,0.00,WUHU216DAVISVP2,2013-01-15 14:04:00,
2013-01-15 09:09:00,66.4,66.1,30.16,SE,144,0.0,1.0,99,0.00,,,0.00,WUHU216DAVISVP2,2013-01-15 14:09:00,
2013-01-15 09:14:00,66.6,66.3,30.16,SE,144,0.0,1.0,99,0.00,,,0.00,WUHU216DAVISVP2,2013-01-15 14:14:00,
2013-01-15 09:19:00,66.9,66.6,30.16,SE,145,0.0,1.0,99,0.00,,,0.00,WUHU216DAVISVP2,2013-01-15 14:19:00,
2013-01-15 09:24:00,67.2,66.9,30.16,SE,142,0.0,1.0,99,0.00,,,0.00,WUHU216DAVISVP2,2013-01-15 14:24:00,
2013-01-15 09:29:00,67.6,67.3,30.16,ESE,103,0.0,1.0,99,0.00,,,0.00,WUHU216DAVISVP2,2013-01-15 14:29:00,
2013-01-15 09:34:00,68.0,67.7,30.16,ESE,103,0.0,1.0,99,0.00,,,0.00,WUHU216DAVISVP2,2013-01-15 14:34:00,
2013-01-15 09:39:00,68.5,68.2,30.16,SSE,159,0.0,2.0,99,0.00,,,0.00,WUHU216DAVISVP2,2013-01-15 14:39:00,
2013-01-15 09:44:00,69.0,68.4,30.16,WNW,298,0.0,2.0,98,0.00,,,0.00,WUHU216DAVISVP2,2013-01-15 14:44:00,
2013-01-15 09:49:00,69.5,68.3,30.16,ESE,105,0.0,2.0,96,0.00,,,0.00,WUHU216DAVISVP2,2013-01-15 14:49:00,
2013-01-15 09:54:00,70.1,68.9,30.16,ESE,105,0.0,1.0,96,0.00,,,0.00,WUHU216DAVISVP2,2013-01-15 14:54:00,
2013-01-15 09:59:00,70.5,68.7,30.16,WSW,257,0.0,4.0,94,0.00,,,0.00,WUHU216DAVISVP2,2013-01-15 14:59:00,
2013-01-15 10:04:00,70.9,68.7,30.16,SSE,157,0.0,4.0,93,0.00,,,0.00,WUHU216DAVISVP2,2013-01-15 15:04:00,
2013-01-15 10:09:00,71.3,68.8,30.15,NNE,20,1.0,2.0,92,0.00,,,0.00,WUHU216DAVISVP2,2013-01-15 15:09:00,
2013-01-15 10:14:00,71.6,68.8,30.16,NE,53,0.0,3.0,91,0.00,,,0.00,WUHU216DAVISVP2,2013-01-15 15:14:00,
2013-01-15 10:19:00,71.9,68.8,30.15,ESE,113,0.0,3.0,90,0.00,,,0.00,WUHU216DAVISVP2,2013-01-15 15:19:00,
2013-01-15 10:24:00,72.2,68.8,30.15,ESE,109,0.0,2.0,89,0.00,,,0.00,WUHU216DAVISVP2,2013-01-15 15:24:00,
2013-01-15 10:29:00,72.6,69.2,30.15,SSE,161,0.0,4.0,89,0.00,,,0.00,WUHU216DAVISVP2,2013-01-15 15:29:00,
2013-01-15 10:34:00,73.1,69.0,30.15,East,89,0.0,4.0,87,0.00,,,0.00,WUHU216DAVISVP2,2013-01-15 15:34:00,
2013-01-15 10:39:00,73.4,69.0,30.15,ENE,61,0.0,1.0,86,0.00,,,0.00,WUHU216DAVISVP2,2013-01-15 15:39:00,
2013-01-15 10:44:00,73.6,68.8,30.15,ESE,105,0.0,2.0,85,0.00,,,0.00,WUHU216DAVISVP2,2013-01-15 15:44:00,
2013-01-15 10:49:00,73.8,68.7,30.15,SSE,149,0.0,3.0,84,0.00,,,0.00,WUHU216DAVISVP2,2013-01-15 15:49:00,
2013-01-15 10:54:00,73.9,68.8,30.15,NNE,28,0.0,3.0,84,0.00,,,0.00,WUHU216DAVISVP2,2013-01-15 15:54:00,
2013-01-15 10:59:00,73.9,68.5,30.14,ENE,64,0.0,2.0,83,0.00,,,0.00,WUHU216DAVISVP2,2013-01-15 15:59:00,
2013-01-15 11:04:00,74.1,68.7,30.14,South,169,0.0,2.0,83,0.00,,,0.00,WUHU216DAVISVP2,2013-01-15 16:04:00,
2013-01-15 11:09:00,74.4,68.6,30.14,South,188,0.0,2.0,82,0.00,,,0.00,WUHU216DAVISVP2,2013-01-15 16:09:00,
2013-01-15 11:14:00,74.7,68.9,30.14,NE,36,0.0,2.0,82,0.00,,,0.00,WUHU216DAVISVP2,2013-01-15 16:14:00,
2013-01-15 11:19:00,75.0,68.9,30.14,SE,132,1.0,2.0,81,0.00,,,0.00,WUHU216DAVISVP2,2013-01-15 16:19:00,
2013-01-15 11:24:00,75.3,68.8,30.13,East,89,0.0,2.0,80,0.00,,,0.00,WUHU216DAVISVP2,2013-01-15 16:24:00,
2013-01-15 11:29:00,76.0,69.1,30.13,ENE,61,0.0,3.0,79,0.00,,,0.00,WUHU216DAVISVP2,2013-01-15 16:29:00,
2013-01-15 11:34:00,76.5,68.9,30.13,ENE,69,0.0,3.0,77,0.00,,,0.00,WUHU216DAVISVP2,2013-01-15 16:34:00,
2013-01-15 11:39:00,76.7,68.7,30.13,ENE,70,0.0,1.0,76,0.00,,,0.00,WUHU216DAVISVP2,2013-01-15 16:39:00,
2013-01-15 11:44:00,77.1,69.1,30.12,NNE,29,0.0,1.0,76,0.00,,,0.00,WUHU216DAVISVP2,2013-01-15 16:44:00,
2013-01-15 11:49:00,77.4,69.0,30.12,WSW,242,1.0,2.0,75,0.00,,,0.00,WUHU216DAVISVP2,2013-01-15 16:49:00,
2013-01-15 11:54:00,77.8,68.6,30.12,ESE,104,0.0,3.0,73,0.00,,,0.00,WUHU216DAVISVP2,2013-01-15 16:54:00,
2013-01-15 11:59:00,77.9,68.7,30.11,SSE,153,0.0,3.0,73,0.00,,,0.00,WUHU216DAVISVP2,2013-01-15 16:59:00,
2013-01-15 12:04:00,78.0,69.2,30.11,SSE,154,0.0,2.0,74,0.00,,,0.00,WUHU216DAVISVP2,2013-01-15 17:04:00,
2013-01-15 12:09:00,78.3,69.5,30.10,ESE,122,0.0,2.0,74,0.00,,,0.00,WUHU216DAVISVP2,2013-01-15 17:09:00,
2013-01-15 12:14:00,78.4,68.8,30.10,ESE,111,0.0,2.0,72,0.00,,,0.00,WUHU216DAVISVP2,2013-01-15 17:14:00,
2013-01-15 12:19:00,78.7,69.1,30.10,ENE,62,0.0,2.0,72,0.00,,,0.00,WUHU216DAVISVP2,2013-01-15 17:19:00,
2013-01-15 12:24:00,78.7,69.9,30.10,East,94,0.0,2.0,74,0.00,,,0.00,WUHU216DAVISVP2,2013-01-15 17:24:00,
2013-01-15 12:29:00,78.5,70.1,30.10,East,96,0.0,2.0,75,0.00,,,0.00,WUHU216DAVISVP2,2013-01-15 17:29:00,
2013-01-15 12:34:00,78.3,69.9,30.10,ENE,76,0.0,1.0,75,0.00,,,0.00,WUHU216DAVISVP2,2013-01-15 17:34:00,
2013-01-15 12:39:00,77.8,69.8,30.09,ENE,77,0.0,2.0,76,0.00,,,0.00,WUHU216DAVISVP2,2013-01-15 17:39:00,
2013-01-15 12:44:00,77.1,69.5,30.09,ENE,76,0.0,2.0,77,0.00,,,0.00,WUHU216DAVISVP2,2013-01-15 17:44:00,
2013-01-15 12:49:00,76.3,69.4,30.09,ENE,69,0.0,2.0,79,0.00,,,0.00,WUHU216DAVISVP2,2013-01-15 17:49:00,
2013-01-15 12:54:00,76.1,69.2,30.09,NE,42,0.0,2.0,79,0.00,,,0.00,WUHU216DAVISVP2,2013-01-15 17:54:00,
2013-01-15 12:59:00,76.1,69.2,30.09,NE,42,0.0,2.0,79,0.00,,,0.00,WUHU216DAVISVP2,2013-01-15 17:59:00,
2013-01-15 13:04:00,75.8,68.9,30.09,NE,51,0.0,2.0,79,0.00,,,0.00,WUHU216DAVISVP2,2013-01-15 18:04:00,
2013-01-15 13:09:00,75.7,68.8,30.09,NE,47,0.0,3.0,79,0.00,,,0.00,WUHU216DAVISVP2,2013-01-15 18:09:00,
2013-01-15 13:14:00,75.5,69.0,30.08,NE,34,0.0,3.0,80,0.00,,,0.00,WUHU216DAVISVP2,2013-01-15 18:14:00,
2013-01-15 13:19:00,75.9,69.4,30.08,NNE,33,0.0,2.0,80,0.00,,,0.00,WUHU216DAVISVP2,2013-01-15 18:19:00,
2013-01-15 13:24:00,76.2,69.3,30.08,ENE,67,0.0,2.0,79,0.00,,,0.00,WUHU216DAVISVP2,2013-01-15 18:24:00,
2013-01-15 13:29:00,76.2,69.3,30.07,ENE,73,1.0,2.0,79,0.00,,,0.00,WUHU216DAVISVP2,2013-01-15 18:29:00,
2013-01-15 13:34:00,76.3,69.1,30.07,East,80,2.0,3.0,78,0.00,,,0.00,WUHU216DAVISVP2,2013-01-15 18:34:00,
2013-01-15 13:39:00,76.0,69.1,30.07,ENE,65,1.0,3.0,79,0.00,,,0.00,WUHU216DAVISVP2,2013-01-15 18:39:00,
2013-01-15 13:44:00,76.0,69.1,30.07,ENE,58,2.0,3.0,79,0.00,,,0.00,WUHU216DAVISVP2,2013-01-15 18:44:00,
2013-01-15 13:49:00,75.9,69.0,30.07,East,79,0.0,3.0,79,0.00,,,0.00,WUHU216DAVISVP2,2013-01-15 18:49:00,
2013-01-15 13:54:00,75.9,69.0,30.07,NE,51,0.0,3.0,79,0.00,,,0.00,WUHU216DAVISVP2,2013-01-15 18:54:00,
2013-01-15 13:59:00,75.9,69.0,30.07,NE,51,2.0,3.0,79,0.00,,,0.00,WUHU216DAVISVP2,2013-01-15 18:59:00,
2013-01-15 14:04:00,75.9,69.0,30.07,NE,51,0.0,3.0,79,0.00,,,0.00,WUHU216DAVISVP2,2013-01-15 19:04:00,
2013-01-15 14:09:00,75.7,68.8,30.07,ENE,76,0.0,4.0,79,0.00,,,0.00,WUHU216DAVISVP2,2013-01-15 19:09:00,
2013-01-15 14:14:00,75.7,68.8,30.07,NE,50,1.0,4.0,79,0.00,,,0.00,WUHU216DAVISVP2,2013-01-15 19:14:00,
2013-01-15 14:19:00,75.9,69.0,30.07,ENE,65,0.0,3.0,79,0.00,,,0.00,WUHU216DAVISVP2,2013-01-15 19:19:00,
2013-01-15 14:24:00,75.8,68.9,30.07,NE,56,0.0,3.0,79,0.00,,,0.00,WUHU216DAVISVP2,2013-01-15 19:24:00,
2013-01-15 14:29:00,76.0,68.8,30.07,NE,53,0.0,3.0,78,0.00,,,0.00,WUHU216DAVISVP2,2013-01-15 19:29:00,
2013-01-15 14:34:00,76.0,68.8,30.07,NE,52,0.0,3.0,78,0.00,,,0.00,WUHU216DAVISVP2,2013-01-15 19:34:00,
2013-01-15 14:39:00,75.7,68.5,30.07,NE,51,0.0,3.0,78,0.00,,,0.00,WUHU216DAVISVP2,2013-01-15 19:39:00,
2013-01-15 14:44:00,75.3,68.1,30.07,East,84,1.0,3.0,78,0.00,,,0.00,WUHU216DAVISVP2,2013-01-15 19:44:00,
2013-01-15 14:49:00,75.0,68.2,30.06,East,82,1.0,3.0,79,0.00,,,0.00,WUHU216DAVISVP2,2013-01-15 19:49:00,
2013-01-15 14:54:00,74.8,68.0,30.06,ESE,103,0.0,2.0,79,0.00,,,0.00,WUHU216DAVISVP2,2013-01-15 19:54:00,
2013-01-15 14:59:00,74.8,68.0,30.06,East,79,1.0,2.0,79,0.00,,,0.00,WUHU216DAVISVP2,2013-01-15 19:59:00,
2013-01-15 15:04:00,74.7,67.5,30.06,NE,49,3.0,3.0,78,0.00,,,0.00,WUHU216DAVISVP2,2013-01-15 20:04:00,
2013-01-15 15:09:00,74.4,67.2,30.06,ENE,60,0.0,3.0,78,0.00,,,0.00,WUHU216DAVISVP2,2013-01-15 20:09:00,
2013-01-15 15:14:00,74.2,67.7,30.06,ENE,60,0.0,3.0,80,0.00,,,0.00,WUHU216DAVISVP2,2013-01-15 20:14:00,
2013-01-15 15:19:00,74.4,67.6,30.06,ENE,60,0.0,2.0,79,0.00,,,0.00,WUHU216DAVISVP2,2013-01-15 20:19:00,
2013-01-15 15:24:00,74.6,67.8,30.06,ENE,74,0.0,3.0,79,0.00,,,0.00,WUHU216DAVISVP2,2013-01-15 20:24:00,
2013-01-15 15:29:00,74.7,68.2,30.06,ENE,71,0.0,3.0,80,0.00,,,0.00,WUHU216DAVISVP2,2013-01-15 20:29:00,
2013-01-15 15:34:00,74.7,68.2,30.06,NE,47,2.0,3.0,80,0.00,,,0.00,WUHU216DAVISVP2,2013-01-15 20:34:00,
2013-01-15 15:39:00,74.4,67.9,30.06,East,84,0.0,3.0,80,0.00,,,0.00,WUHU216DAVISVP2,2013-01-15 20:39:00,
2013-01-15 15:44:00,74.2,67.7,30.06,ENE,70,1.0,3.0,80,0.00,,,0.00,WUHU216DAVISVP2,2013-01-15 20:44:00,
2013-01-15 15:49:00,73.9,67.4,30.07,ENE,70,0.0,4.0,80,0.00,,,0.00,WUHU216DAVISVP2,2013-01-15 20:49:00,
2013-01-15 15:54:00,73.8,67.3,30.07,East,90,1.0,4.0,80,0.00,,,0.00,WUHU216DAVISVP2,2013-01-15 20:54:00,
2013-01-15 15:59:00,73.8,67.7,30.07,ENE,76,2.0,4.0,81,0.00,,,0.00,WUHU216DAVISVP2,2013-01-15 20:59:00,
2013-01-15 16:04:00,73.6,67.8,30.07,NE,53,0.0,4.0,82,0.00,,,0.00,WUHU216DAVISVP2,2013-01-15 21:04:00,
2013-01-15 16:09:00,73.3,67.5,30.07,NE,56,0.0,4.0,82,0.00,,,0.00,WUHU216DAVISVP2,2013-01-15 21:09:00,
2013-01-15 16:14:00,73.3,67.9,30.07,ENE,67,0.0,3.0,83,0.00,,,0.00,WUHU216DAVISVP2,2013-01-15 21:14:00,
2013-01-15 16:19:00,73.3,67.9,30.07,ENE,59,0.0,4.0,83,0.00,,,0.00,WUHU216DAVISVP2,2013-01-15 21:19:00,
2013-01-15 16:24:00,73.3,67.9,30.07,ENE,71,0.0,4.0,83,0.00,,,0.00,WUHU216DAVISVP2,2013-01-15 21:24:00,
2013-01-15 16:29:00,73.0,67.6,30.07,ENE,65,0.0,2.0,83,0.00,,,0.00,WUHU216DAVISVP2,2013-01-15 21:29:00,
2013-01-15 16:34:00,72.8,67.7,30.08,ENE,65,0.0,3.0,84,0.00,,,0.00,WUHU216DAVISVP2,2013-01-15 21:34:00,
2013-01-15 16:39:00,72.5,67.4,30.07,ESE,106,0.0,3.0,84,0.00,,,0.00,WUHU216DAVISVP2,2013-01-15 21:39:00,
2013-01-15 16:44:00,72.4,67.3,30.08,ENE,62,0.0,3.0,84,0.00,,,0.00,WUHU216DAVISVP2,2013-01-15 21:44:00,
2013-01-15 16:49:00,72.3,67.2,30.08,ENE,61,0.0,3.0,84,0.00,,,0.00,WUHU216DAVISVP2,2013-01-15 21:49:00,
2013-01-15 16:54:00,72.2,67.1,30.08,ENE,66,0.0,3.0,84,0.00,,,0.00,WUHU216DAVISVP2,2013-01-15 21:54:00,
2013-01-15 16:59:00,72.1,67.4,30.08,ENE,72,0.0,3.0,85,0.00,,,0.00,WUHU216DAVISVP2,2013-01-15 21:59:00,
2013-01-15 17:04:00,72.1,67.4,30.08,NE,40,0.0,2.0,85,0.00,,,0.00,WUHU216DAVISVP2,2013-01-15 22:04:00,
2013-01-15 17:09:00,72.0,67.3,30.08,NE,40,1.0,2.0,85,0.00,,,0.00,WUHU216DAVISVP2,2013-01-15 22:09:00,
2013-01-15 17:14:00,72.0,67.3,30.08,NE,56,0.0,1.0,85,0.00,,,0.00,WUHU216DAVISVP2,2013-01-15 22:14:00,
2013-01-15 17:19:00,71.9,67.2,30.08,ENE,57,0.0,2.0,85,0.00,,,0.00,WUHU216DAVISVP2,2013-01-15 22:19:00,
2013-01-15 17:24:00,71.8,67.1,30.08,NE,46,0.0,2.0,85,0.00,,,0.00,WUHU216DAVISVP2,2013-01-15 22:24:00,
2013-01-15 17:29:00,71.7,67.0,30.08,NE,46,0.0,1.0,85,0.00,,,0.00,WUHU216DAVISVP2,2013-01-15 22:29:00,
2013-01-15 17:34:00,71.5,66.8,30.08,NE,44,0.0,2.0,85,0.00,,,0.00,WUHU216DAVISVP2,2013-01-15 22:34:00,
2013-01-15 17:39:00,71.3,66.6,30.08,NE,48,0.0,3.0,85,0.00,,,0.00,WUHU216DAVISVP2,2013-01-15 22:39:00,
2013-01-15 17:44:00,71.1,66.7,30.08,NE,48,0.0,3.0,86,0.00,,,0.00,WUHU216DAVISVP2,2013-01-15 22:44:00,
2013-01-15 17:49:00,70.9,66.5,30.08,NE,49,1.0,2.0,86,0.00,,,0.00,WUHU216DAVISVP2,2013-01-15 22:49:00,
2013-01-15 17:54:00,70.7,66.6,30.08,NE,48,0.0,3.0,87,0.00,,,0.00,WUHU216DAVISVP2,2013-01-15 22:54:00,
2013-01-15 17:59:00,70.6,66.5,30.08,ENE,61,0.0,3.0,87,0.00,,,0.00,WUHU216DAVISVP2,2013-01-15 22:59:00,
2013-01-15 18:04:00,70.5,66.5,30.08,ENE,61,0.0,3.0,87,0.00,,,0.00,WUHU216DAVISVP2,2013-01-15 23:04:00,
2013-01-15 18:09:00,70.4,66.4,30.08,SSE,153,0.0,1.0,87,0.00,,,0.00,WUHU216DAVISVP2,2013-01-15 23:09:00,
2013-01-15 18:14:00,70.4,66.7,30.09,East,92,0.0,1.0,88,0.00,,,0.00,WUHU216DAVISVP2,2013-01-15 23:14:00,
2013-01-15 18:19:00,70.3,66.6,30.09,East,92,0.0,1.0,88,0.00,,,0.00,WUHU216DAVISVP2,2013-01-15 23:19:00,
2013-01-15 18:24:00,70.2,66.5,30.09,East,92,0.0,1.0,88,0.00,,,0.00,WUHU216DAVISVP2,2013-01-15 23:24:00,
2013-01-15 18:29:00,70.1,66.4,30.09,East,92,0.0,1.0,88,0.00,,,0.00,WUHU216DAVISVP2,2013-01-15 23:29:00,
2013-01-15 18:34:00,70.1,66.4,30.09,East,92,0.0,1.0,88,0.00,,,0.00,WUHU216DAVISVP2,2013-01-15 23:34:00,
2013-01-15 18:39:00,70.0,66.3,30.09,East,92,0.0,1.0,88,0.00,,,0.00,WUHU216DAVISVP2,2013-01-15 23:39:00,
2013-01-15 18:44:00,70.0,66.3,30.09,East,92,0.0,1.0,88,0.00,,,0.00,WUHU216DAVISVP2,2013-01-15 23:44:00,
2013-01-15 18:49:00,70.0,66.6,30.08,East,90,0.0,1.0,89,0.00,,,0.00,WUHU216DAVISVP2,2013-01-15 23:49:00,
2013-01-15 18:54:00,70.0,66.6,30.09,East,90,0.0,1.0,89,0.00,,,0.00,WUHU216DAVISVP2,2013-01-15 23:54:00,
2013-01-15 18:59:00,69.9,66.5,30.09,East,90,0.0,2.0,89,0.00,,,0.00,WUHU216DAVISVP2,2013-01-15 23:59:00,
2013-01-15 19:04:00,69.9,66.5,30.09,East,90,1.0,2.0,89,0.00,,,0.00,WUHU216DAVISVP2,2013-01-16 00:04:00,
2013-01-15 19:09:00,69.8,66.7,30.09,East,90,0.0,1.0,90,0.00,,,0.00,WUHU216DAVISVP2,2013-01-16 00:09:00,
2013-01-15 19:14:00,69.8,66.7,30.09,East,90,0.0,1.0,90,0.00,,,0.00,WUHU216DAVISVP2,2013-01-16 00:14:00,
2013-01-15 19:19:00,69.8,66.7,30.08,East,90,0.0,1.0,90,0.00,,,0.00,WUHU216DAVISVP2,2013-01-16 00:19:00,
2013-01-15 19:24:00,69.8,66.7,30.08,East,90,0.0,1.0,90,0.00,,,0.00,WUHU216DAVISVP2,2013-01-16 00:24:00,
2013-01-15 19:29:00,69.8,67.0,30.08,ENE,59,1.0,2.0,91,0.00,,,0.00,WUHU216DAVISVP2,2013-01-16 00:29:00,
2013-01-15 19:34:00,69.8,67.0,30.08,ENE,60,1.0,2.0,91,0.00,,,0.00,WUHU216DAVISVP2,2013-01-16 00:34:00,
2013-01-15 19:39:00,69.8,67.0,30.09,ENE,60,0.0,2.0,91,0.00,,,0.00,WUHU216DAVISVP2,2013-01-16 00:39:00,
2013-01-15 19:44:00,69.7,66.9,30.08,ENE,60,0.0,2.0,91,0.00,,,0.00,WUHU216DAVISVP2,2013-01-16 00:44:00,
2013-01-15 19:49:00,69.6,66.8,30.08,ENE,60,0.0,1.0,91,0.00,,,0.00,WUHU216DAVISVP2,2013-01-16 00:49:00,
2013-01-15 19:54:00,69.6,66.8,30.08,ENE,60,0.0,1.0,91,0.00,,,0.00,WUHU216DAVISVP2,2013-01-16 00:54:00,
2013-01-15 19:59:00,69.5,67.0,30.08,ENE,59,0.0,1.0,92,0.00,,,0.00,WUHU216DAVISVP2,2013-01-16 00:59:00,
2013-01-15 20:04:00,69.5,67.0,30.08,ENE,59,0.0,2.0,92,0.00,,,0.00,WUHU216DAVISVP2,2013-01-16 01:04:00,
2013-01-15 20:09:00,69.4,66.9,30.07,ENE,59,0.0,2.0,92,0.00,,,0.00,WUHU216DAVISVP2,2013-01-16 01:09:00,
2013-01-15 20:14:00,69.4,66.9,30.07,ENE,59,0.0,2.0,92,0.00,,,0.00,WUHU216DAVISVP2,2013-01-16 01:14:00,
2013-01-15 20:19:00,69.4,66.9,30.07,ENE,59,0.0,1.0,92,0.00,,,0.00,WUHU216DAVISVP2,2013-01-16 01:19:00,
2013-01-15 20:24:00,69.4,67.3,30.08,ENE,59,0.0,1.0,93,0.00,,,0.00,WUHU216DAVISVP2,2013-01-16 01:24:00,
2013-01-15 20:29:00,69.4,67.3,30.08,NE,51,0.0,3.0,93,0.00,,,0.00,WUHU216DAVISVP2,2013-01-16 01:29:00,
2013-01-15 20:34:00,69.4,67.3,30.08,NE,51,1.0,3.0,93,0.00,,,0.00,WUHU216DAVISVP2,2013-01-16 01:34:00,
2013-01-15 20:39:00,69.4,67.3,30.07,NE,51,0.0,1.0,93,0.00,,,0.00,WUHU216DAVISVP2,2013-01-16 01:39:00,
2013-01-15 20:44:00,69.4,67.3,30.08,North,5,0.0,2.0,93,0.00,,,0.00,WUHU216DAVISVP2,2013-01-16 01:44:00,
2013-01-15 20:49:00,69.4,67.3,30.08,NNE,26,0.0,2.0,93,0.00,,,0.00,WUHU216DAVISVP2,2013-01-16 01:49:00,
2013-01-15 20:54:00,69.4,67.3,30.08,NNE,26,0.0,2.0,93,0.00,,,0.00,WUHU216DAVISVP2,2013-01-16 01:54:00,
2013-01-15 20:59:00,69.4,67.3,30.08,NNW,327,0.0,1.0,93,0.00,,,0.00,WUHU216DAVISVP2,2013-01-16 01:59:00,
2013-01-15 21:04:00,69.4,67.3,30.08,NE,42,0.0,2.0,93,0.00,,,0.00,WUHU216DAVISVP2,2013-01-16 02:04:00,
2013-01-15 21:09:00,69.5,67.4,30.08,NE,42,0.0,2.0,93,0.00,,,0.00,WUHU216DAVISVP2,2013-01-16 02:09:00,
2013-01-15 21:14:00,69.5,67.4,30.08,NE,42,0.0,1.0,93,0.00,,,0.00,WUHU216DAVISVP2,2013-01-16 02:14:00,
2013-01-15 21:19:00,69.6,67.5,30.08,NE,34,0.0,3.0,93,0.00,,,0.00,WUHU216DAVISVP2,2013-01-16 02:19:00,
2013-01-15 21:24:00,69.7,67.6,30.08,NE,34,0.0,3.0,93,0.00,,,0.00,WUHU216DAVISVP2,2013-01-16 02:24:00,
2013-01-15 21:29:00,69.7,67.6,30.07,East,82,0.0,3.0,93,0.00,,,0.00,WUHU216DAVISVP2,2013-01-16 02:29:00,
2013-01-15 21:34:00,69.8,67.7,30.08,South,184,0.0,3.0,93,0.00,,,0.00,WUHU216DAVISVP2,2013-01-16 02:34:00,
2013-01-15 21:39:00,69.9,67.8,30.08,NE,46,0.0,2.0,93,0.00,,,0.00,WUHU216DAVISVP2,2013-01-16 02:39:00,
2013-01-15 21:44:00,70.0,67.5,30.08,East,82,0.0,2.0,92,0.00,,,0.00,WUHU216DAVISVP2,2013-01-16 02:44:00,
2013-01-15 21:49:00,70.0,67.5,30.07,East,82,0.0,2.0,92,0.00,,,0.00,WUHU216DAVISVP2,2013-01-16 02:49:00,
2013-01-15 21:54:00,70.0,67.5,30.07,ENE,74,0.0,2.0,92,0.00,,,0.00,WUHU216DAVISVP2,2013-01-16 02:54:00,
2013-01-15 21:59:00,70.0,67.5,30.06,ENE,72,1.0,1.0,92,0.00,,,0.00,WUHU216DAVISVP2,2013-01-16 02:59:00,
2013-01-15 22:04:00,70.0,67.5,30.07,ENE,72,0.0,2.0,92,0.00,,,0.00,WUHU216DAVISVP2,2013-01-16 03:04:00,
2013-01-15 22:09:00,70.0,67.5,30.07,ENE,72,0.0,2.0,92,0.00,,,0.00,WUHU216DAVISVP2,2013-01-16 03:09:00,
2013-01-15 22:14:00,70.0,67.5,30.07,ENE,72,0.0,2.0,92,0.00,,,0.00,WUHU216DAVISVP2,2013-01-16 03:14:00,
2013-01-15 22:19:00,69.9,67.4,30.07,ENE,72,0.0,2.0,92,0.00,,,0.00,WUHU216DAVISVP2,2013-01-16 03:19:00,
2013-01-15 22:24:00,70.0,67.5,30.07,ENE,72,0.0,4.0,92,0.00,,,0.00,WUHU216DAVISVP2,2013-01-16 03:24:00,
2013-01-15 22:29:00,70.0,67.2,30.07,ENE,65,0.0,4.0,91,0.00,,,0.00,WUHU216DAVISVP2,2013-01-16 03:29:00,
2013-01-15 22:34:00,70.1,67.3,30.07,East,89,0.0,2.0,91,0.00,,,0.00,WUHU216DAVISVP2,2013-01-16 03:34:00,
2013-01-15 22:39:00,70.1,67.3,30.08,East,89,0.0,2.0,91,0.00,,,0.00,WUHU216DAVISVP2,2013-01-16 03:39:00,
2013-01-15 22:44:00,70.1,67.3,30.07,NW,310,0.0,1.0,91,0.00,,,0.00,WUHU216DAVISVP2,2013-01-16 03:44:00,
2013-01-15 22:49:00,70.0,67.2,30.08,NW,310,1.0,1.0,91,0.00,,,0.00,WUHU216DAVISVP2,2013-01-16 03:49:00,
2013-01-15 22:54:00,70.0,67.2,30.07,NW,310,0.0,1.0,91,0.00,,,0.00,WUHU216DAVISVP2,2013-01-16 03:54:00,
2013-01-15 22:59:00,70.0,67.2,30.07,NW,310,0.0,0.0,91,0.00,,,0.00,WUHU216DAVISVP2,2013-01-16 03:59:00,
2013-01-15 23:04:00,70.0,67.2,30.07,NW,310,0.0,0.0,91,0.00,,,0.00,WUHU216DAVISVP2,2013-01-16 04:04:00,
2013-01-15 23:09:00,69.9,67.1,30.07,NW,310,0.0,0.0,91,0.00,,,0.00,WUHU216DAVISVP2,2013-01-16 04:09:00,
2013-01-15 23:14:00,69.8,67.0,30.07,NW,310,0.0,0.0,91,0.00,,,0.00,WUHU216DAVISVP2,2013-01-16 04:14:00,
2013-01-15 23:19:00,69.8,67.0,30.07,NW,310,0.0,0.0,91,0.00,,,0.00,WUHU216DAVISVP2,2013-01-16 04:19:00,
2013-01-15 23:24:00,69.8,67.0,30.07,WNW,292,0.0,1.0,91,0.00,,,0.00,WUHU216DAVISVP2,2013-01-16 04:24:00,
2013-01-15 23:29:00,69.7,66.9,30.07,WNW,292,0.0,1.0,91,0.00,,,0.00,WUHU216DAVISVP2,2013-01-16 04:29:00,
2013-01-15 23:34:00,69.7,66.9,30.07,WNW,292,0.0,0.0,91,0.00,,,0.00,WUHU216DAVISVP2,2013-01-16 04:34:00,
2013-01-15 23:39:00,69.7,66.9,30.07,WNW,292,0.0,0.0,91,0.00,,,0.00,WUHU216DAVISVP2,2013-01-16 04:39:00,
2013-01-15 23:44:00,69.7,66.9,30.07,WNW,293,0.0,1.0,91,0.00,,,0.00,WUHU216DAVISVP2,2013-01-16 04:44:00,
2013-01-15 23:49:00,69.7,66.9,30.07,WNW,292,0.0,1.0,91,0.00,,,0.00,WUHU216DAVISVP2,2013-01-16 04:49:00,
2013-01-15 23:54:00,69.6,66.8,30.06,WNW,292,0.0,1.0,91,0.00,,,0.00,WUHU216DAVISVP2,2013-01-16 04:54:00,
2013-01-15 23:59:00,69.6,66.8,30.07,WNW,302,0.0,0.0,91,0.00,,,0.00,WUHU216DAVISVP2,2013-01-16 04:59:00,